sensor_id;sensor_type;location;lat;lon;timestamp;pressure;altitude;pressure_sealevel;temperature;humidity
72226;BME280;60130;52.250;5.048;2023-06-01T00:00:00;1025.3;;;12.4;78.2
72226;BME280;60130;52.250;5.048;2023-06-01T00:05:00;1025.2;;;12.4;78.6
72226;BME280;60130;52.250;5.048;2023-06-01T00:10:00;1025.2;;;12.4;78.3
72226;BME280;60130;52.250;5.048;2023-06-01T00:15:00;1025.2;;;12.3;78.4
72226;BME280;60130;52.250;5.048;2023-06-01T00:20:00;1025.2;;;12.4;78.6
72226;BME280;60130;52.250;5.048;2023-06-01T00:25:00;1025.2;;;12.2;78.8
72226;BME280;60130;52.250;5.048;2023-06-01T00:30:00;1025.2;;;12.3;79.2
72226;BME280;60130;52.250;5.048;2023-06-01T00:35:00;1025.2;;;12.4;79.0
72226;BME280;60130;52.250;5.048;2023-06-01T00:40:00;1025.2;;;12.3;79.0
72226;BME280;60130;52.250;5.048;2023-06-01T00:45:00;1025.2;;;12.3;78.6
72226;BME280;60130;52.250;5.048;2023-06-01T00:50:00;1025.2;;;12.3;78.2
72226;BME280;60130;52.250;5.048;2023-06-01T00:55:00;1025.3;;;12.2;78.2
72226;BME280;60130;52.250;5.048;2023-06-01T01:00:01;1025.2;;;12.3;78.4
72226;BME280;60130;52.250;5.048;2023-06-01T01:05:00;1025.2;;;12.4;78.6
72226;BME280;60130;52.250;5.048;2023-06-01T01:10:06;1025.2;;;12.4;78.4
72226;BME280;60130;52.250;5.048;2023-06-01T01:15:05;1025.3;;;12.4;78.9
72226;BME280;60130;52.250;5.048;2023-06-01T01:20:03;1025.2;;;12.4;78.4
72226;BME280;60130;52.250;5.048;2023-06-01T01:25:10;1025.2;;;12.3;78.2
72226;BME280;60130;52.250;5.048;2023-06-01T01:30:02;1025.2;;;12.3;78.2
72226;BME280;60130;52.250;5.048;2023-06-01T01:35:00;1025.2;;;12.2;77.6
72226;BME280;60130;52.250;5.048;2023-06-01T01:40:00;1025.2;;;12.1;78.3
72226;BME280;60130;52.250;5.048;2023-06-01T01:45:00;1025.2;;;11.9;78.6
72226;BME280;60130;52.250;5.048;2023-06-01T01:50:08;1025.2;;;12.0;78.5
72226;BME280;60130;52.250;5.048;2023-06-01T01:55:01;1025.2;;;12.2;78.4
72226;BME280;60130;52.250;5.048;2023-06-01T02:00:00;1025.1;;;12.3;78.3
72226;BME280;60130;52.250;5.048;2023-06-01T02:05:00;1025.1;;;12.3;78.0
72226;BME280;60130;52.250;5.048;2023-06-01T02:10:00;1025.1;;;12.4;78.1
72226;BME280;60130;52.250;5.048;2023-06-01T02:15:00;1025.1;;;12.4;77.7
72226;BME280;60130;52.250;5.048;2023-06-01T02:20:00;1025.1;;;12.3;78.3
72226;BME280;60130;52.250;5.048;2023-06-01T02:25:00;1025.1;;;12.4;78.6
72226;BME280;60130;52.250;5.048;2023-06-01T02:30:00;1025.1;;;12.2;77.7
72226;BME280;60130;52.250;5.048;2023-06-01T02:35:00;1025.1;;;12.1;78.2
72226;BME280;60130;52.250;5.048;2023-06-01T02:40:00;1025.1;;;12.2;78.9
72226;BME280;60130;52.250;5.048;2023-06-01T02:45:00;1025.0;;;12.2;78.1
72226;BME280;60130;52.250;5.048;2023-06-01T02:50:00;1025.0;;;12.1;78.1
72226;BME280;60130;52.250;5.048;2023-06-01T02:55:00;1025.0;;;12.1;78.8
72226;BME280;60130;52.250;5.048;2023-06-01T03:00:00;1025.0;;;12.2;78.9
72226;BME280;60130;52.250;5.048;2023-06-01T03:05:00;1024.9;;;12.1;78.8
72226;BME280;60130;52.250;5.048;2023-06-01T03:10:00;1024.9;;;12.1;78.5
72226;BME280;60130;52.250;5.048;2023-06-01T03:15:00;1024.9;;;12.2;79.1
72226;BME280;60130;52.250;5.048;2023-06-01T03:20:00;1024.9;;;12.2;79.1
72226;BME280;60130;52.250;5.048;2023-06-01T03:25:00;1024.9;;;12.3;78.8
72226;BME280;60130;52.250;5.048;2023-06-01T03:30:00;1024.9;;;12.3;78.0
72226;BME280;60130;52.250;5.048;2023-06-01T03:35:00;1024.9;;;12.3;77.9
72226;BME280;60130;52.250;5.048;2023-06-01T03:40:00;1024.9;;;12.2;78.5
72226;BME280;60130;52.250;5.048;2023-06-01T03:45:00;1024.9;;;12.3;78.2
72226;BME280;60130;52.250;5.048;2023-06-01T03:50:00;1024.9;;;12.2;78.2
72226;BME280;60130;52.250;5.048;2023-06-01T03:55:02;1025.0;;;12.1;78.2
72226;BME280;60130;52.250;5.048;2023-06-01T04:00:00;1025.0;;;12.1;77.7
72226;BME280;60130;52.250;5.048;2023-06-01T04:05:00;1024.9;;;12.1;77.9
72226;BME280;60130;52.250;5.048;2023-06-01T04:10:00;1024.8;;;12.1;78.0
72226;BME280;60130;52.250;5.048;2023-06-01T04:15:00;1024.9;;;12.2;77.7
72226;BME280;60130;52.250;5.048;2023-06-01T04:20:00;1024.9;;;12.3;77.6
72226;BME280;60130;52.250;5.048;2023-06-01T04:25:00;1024.9;;;12.4;77.6
72226;BME280;60130;52.250;5.048;2023-06-01T04:30:00;1024.8;;;12.5;77.4
72226;BME280;60130;52.250;5.048;2023-06-01T04:35:00;1024.9;;;12.5;76.8
72226;BME280;60130;52.250;5.048;2023-06-01T04:40:00;1024.9;;;12.6;76.7
72226;BME280;60130;52.250;5.048;2023-06-01T04:45:00;1025.0;;;12.5;76.2
72226;BME280;60130;52.250;5.048;2023-06-01T04:50:00;1024.9;;;12.4;75.9
72226;BME280;60130;52.250;5.048;2023-06-01T04:55:00;1025.0;;;12.5;75.8
72226;BME280;60130;52.250;5.048;2023-06-01T05:00:00;1025.0;;;12.5;75.7
72226;BME280;60130;52.250;5.048;2023-06-01T05:05:00;1025.0;;;12.5;75.5
72226;BME280;60130;52.250;5.048;2023-06-01T05:10:00;1025.0;;;12.6;75.2
72226;BME280;60130;52.250;5.048;2023-06-01T05:15:01;1025.1;;;12.7;74.9
72226;BME280;60130;52.250;5.048;2023-06-01T05:20:00;1025.1;;;12.8;74.9
72226;BME280;60130;52.250;5.048;2023-06-01T05:25:00;1025.1;;;12.7;74.9
72226;BME280;60130;52.250;5.048;2023-06-01T05:30:00;1025.1;;;12.7;75.5
72226;BME280;60130;52.250;5.048;2023-06-01T05:35:00;1025.1;;;12.7;74.8
72226;BME280;60130;52.250;5.048;2023-06-01T05:40:00;1025.1;;;12.9;73.9
72226;BME280;60130;52.250;5.048;2023-06-01T05:45:00;1025.1;;;12.9;73.6
72226;BME280;60130;52.250;5.048;2023-06-01T05:50:00;1025.1;;;13.0;73.0
72226;BME280;60130;52.250;5.048;2023-06-01T05:55:00;1025.2;;;13.0;74.0
72226;BME280;60130;52.250;5.048;2023-06-01T06:00:00;1025.1;;;13.2;72.9
72226;BME280;60130;52.250;5.048;2023-06-01T06:05:00;1025.1;;;13.2;73.1
72226;BME280;60130;52.250;5.048;2023-06-01T06:10:00;1025.0;;;13.3;73.2
72226;BME280;60130;52.250;5.048;2023-06-01T06:15:00;1025.1;;;13.5;71.2
72226;BME280;60130;52.250;5.048;2023-06-01T06:20:00;1025.1;;;13.4;70.9
72226;BME280;60130;52.250;5.048;2023-06-01T06:25:00;1025.1;;;13.3;72.1
72226;BME280;60130;52.250;5.048;2023-06-01T06:30:00;1025.0;;;13.4;71.7
72226;BME280;60130;52.250;5.048;2023-06-01T06:35:00;1025.1;;;13.5;72.3
72226;BME280;60130;52.250;5.048;2023-06-01T06:40:00;1025.1;;;13.6;69.8
72226;BME280;60130;52.250;5.048;2023-06-01T06:45:00;1025.1;;;13.7;70.3
72226;BME280;60130;52.250;5.048;2023-06-01T06:50:00;1025.1;;;13.8;70.2
72226;BME280;60130;52.250;5.048;2023-06-01T06:55:00;1025.1;;;13.9;70.1
72226;BME280;60130;52.250;5.048;2023-06-01T07:00:00;1025.2;;;14.0;70.1
72226;BME280;60130;52.250;5.048;2023-06-01T07:05:00;1025.2;;;14.0;70.4
72226;BME280;60130;52.250;5.048;2023-06-01T07:10:00;1025.3;;;14.0;70.0
72226;BME280;60130;52.250;5.048;2023-06-01T07:15:01;1025.2;;;14.1;69.8
72226;BME280;60130;52.250;5.048;2023-06-01T07:20:02;1025.2;;;14.1;69.4
72226;BME280;60130;52.250;5.048;2023-06-01T07:25:00;1025.3;;;14.4;69.0
72226;BME280;60130;52.250;5.048;2023-06-01T07:30:00;1025.2;;;14.5;68.5
72226;BME280;60130;52.250;5.048;2023-06-01T07:35:00;1025.2;;;14.5;68.4
72226;BME280;60130;52.250;5.048;2023-06-01T07:40:00;1025.2;;;14.7;67.9
72226;BME280;60130;52.250;5.048;2023-06-01T07:45:00;1025.2;;;14.8;68.2
72226;BME280;60130;52.250;5.048;2023-06-01T07:50:00;1025.2;;;15.1;67.8
72226;BME280;60130;52.250;5.048;2023-06-01T07:55:00;1025.2;;;15.2;67.6
72226;BME280;60130;52.250;5.048;2023-06-01T08:00:00;1025.2;;;15.2;66.4
72226;BME280;60130;52.250;5.048;2023-06-01T08:05:00;1025.2;;;15.2;67.0
72226;BME280;60130;52.250;5.048;2023-06-01T08:10:00;1025.2;;;14.9;66.9
72226;BME280;60130;52.250;5.048;2023-06-01T08:15:00;1025.2;;;15.1;67.0
72226;BME280;60130;52.250;5.048;2023-06-01T08:20:00;1025.2;;;15.5;65.7
72226;BME280;60130;52.250;5.048;2023-06-01T08:25:00;1025.2;;;15.8;63.3
72226;BME280;60130;52.250;5.048;2023-06-01T08:30:01;1025.2;;;15.6;63.2
72226;BME280;60130;52.250;5.048;2023-06-01T08:35:01;1025.1;;;15.7;63.1
72226;BME280;60130;52.250;5.048;2023-06-01T08:40:00;1025.1;;;15.7;62.4
72226;BME280;60130;52.250;5.048;2023-06-01T08:45:04;1025.1;;;15.9;62.7
72226;BME280;60130;52.250;5.048;2023-06-01T08:50:00;1025.1;;;15.9;63.1
72226;BME280;60130;52.250;5.048;2023-06-01T08:55:01;1025.1;;;16.3;61.2
72226;BME280;60130;52.250;5.048;2023-06-01T09:00:00;1025.1;;;15.8;62.0
72226;BME280;60130;52.250;5.048;2023-06-01T09:05:01;1025.1;;;16.1;62.0
72226;BME280;60130;52.250;5.048;2023-06-01T09:10:00;1025.1;;;16.6;60.8
72226;BME280;60130;52.250;5.048;2023-06-01T09:15:09;1025.1;;;16.8;59.9
72226;BME280;60130;52.250;5.048;2023-06-01T09:20:00;1025.1;;;16.5;61.4
72226;BME280;60130;52.250;5.048;2023-06-01T09:25:00;1025.1;;;16.7;60.8
72226;BME280;60130;52.250;5.048;2023-06-01T09:30:00;1025.0;;;16.8;60.8
72226;BME280;60130;52.250;5.048;2023-06-01T09:35:00;1025.0;;;16.6;61.8
72226;BME280;60130;52.250;5.048;2023-06-01T09:40:00;1024.9;;;16.3;62.4
72226;BME280;60130;52.250;5.048;2023-06-01T09:45:13;1024.9;;;16.5;62.4
72226;BME280;60130;52.250;5.048;2023-06-01T09:50:00;1024.8;;;16.3;61.0
72226;BME280;60130;52.250;5.048;2023-06-01T09:55:05;1024.8;;;16.4;61.2
72226;BME280;60130;52.250;5.048;2023-06-01T10:00:02;1024.9;;;16.9;58.8
72226;BME280;60130;52.250;5.048;2023-06-01T10:05:00;1024.9;;;16.9;58.0
72226;BME280;60130;52.250;5.048;2023-06-01T10:10:01;1024.8;;;17.4;57.2
72226;BME280;60130;52.250;5.048;2023-06-01T10:15:00;1024.9;;;17.5;58.0
72226;BME280;60130;52.250;5.048;2023-06-01T10:20:01;1024.9;;;17.4;57.6
72226;BME280;60130;52.250;5.048;2023-06-01T10:25:00;1025.0;;;17.4;56.4
72226;BME280;60130;52.250;5.048;2023-06-01T10:30:00;1024.9;;;17.2;56.6
72226;BME280;60130;52.250;5.048;2023-06-01T10:35:00;1024.9;;;17.4;57.0
72226;BME280;60130;52.250;5.048;2023-06-01T10:40:11;1024.9;;;17.3;57.0
72226;BME280;60130;52.250;5.048;2023-06-01T10:45:00;1024.8;;;17.8;56.7
72226;BME280;60130;52.250;5.048;2023-06-01T10:50:07;1024.8;;;18.0;56.5
72226;BME280;60130;52.250;5.048;2023-06-01T11:00:11;1024.7;;;17.8;56.5
72226;BME280;60130;52.250;5.048;2023-06-01T11:10:00;1024.7;;;17.8;58.2
72226;BME280;60130;52.250;5.048;2023-06-01T11:15:08;1024.7;;;17.3;58.7
72226;BME280;60130;52.250;5.048;2023-06-01T11:20:01;1024.7;;;17.3;58.7
72226;BME280;60130;52.250;5.048;2023-06-01T11:25:03;1024.7;;;17.8;58.1
72226;BME280;60130;52.250;5.048;2023-06-01T11:30:00;1024.7;;;17.9;57.0
72226;BME280;60130;52.250;5.048;2023-06-01T11:35:18;1024.6;;;17.6;58.8
72226;BME280;60130;52.250;5.048;2023-06-01T11:40:04;1024.6;;;17.2;60.7
72226;BME280;60130;52.250;5.048;2023-06-01T11:45:00;1024.6;;;17.1;60.9
72226;BME280;60130;52.250;5.048;2023-06-01T11:50:00;1024.7;;;17.0;61.5
72226;BME280;60130;52.250;5.048;2023-06-01T11:55:02;1024.6;;;17.3;60.8
72226;BME280;60130;52.250;5.048;2023-06-01T12:00:00;1024.6;;;17.2;59.7
72226;BME280;60130;52.250;5.048;2023-06-01T12:05:01;1024.6;;;17.0;61.3
72226;BME280;60130;52.250;5.048;2023-06-01T12:10:00;1024.7;;;16.2;65.2
72226;BME280;60130;52.250;5.048;2023-06-01T12:15:00;1024.6;;;15.7;67.3
72226;BME280;60130;52.250;5.048;2023-06-01T12:20:00;1024.7;;;15.7;66.9
72226;BME280;60130;52.250;5.048;2023-06-01T12:25:04;1024.6;;;16.0;65.4
72226;BME280;60130;52.250;5.048;2023-06-01T12:30:00;1024.6;;;16.0;65.5
72226;BME280;60130;52.250;5.048;2023-06-01T12:35:04;1024.6;;;16.1;65.5
72226;BME280;60130;52.250;5.048;2023-06-01T12:40:00;1024.5;;;16.4;65.2
72226;BME280;60130;52.250;5.048;2023-06-01T12:45:00;1024.7;;;15.9;67.4
72226;BME280;60130;52.250;5.048;2023-06-01T12:50:02;1024.7;;;15.6;68.1
72226;BME280;60130;52.250;5.048;2023-06-01T12:55:00;1024.6;;;15.7;66.9
72226;BME280;60130;52.250;5.048;2023-06-01T13:00:00;1024.6;;;15.8;66.6
72226;BME280;60130;52.250;5.048;2023-06-01T13:05:00;1024.6;;;16.2;64.8
72226;BME280;60130;52.250;5.048;2023-06-01T13:10:00;1024.6;;;16.5;64.4
72226;BME280;60130;52.250;5.048;2023-06-01T13:15:00;1024.5;;;16.6;63.3
72226;BME280;60130;52.250;5.048;2023-06-01T13:20:00;1024.5;;;16.7;63.1
72226;BME280;60130;52.250;5.048;2023-06-01T13:25:00;1024.4;;;16.6;63.0
72226;BME280;60130;52.250;5.048;2023-06-01T13:30:00;1024.4;;;16.6;63.2
72226;BME280;60130;52.250;5.048;2023-06-01T13:35:00;1024.4;;;16.1;65.0
72226;BME280;60130;52.250;5.048;2023-06-01T13:40:00;1024.4;;;16.0;65.2
72226;BME280;60130;52.250;5.048;2023-06-01T13:45:00;1024.4;;;16.1;65.0
72226;BME280;60130;52.250;5.048;2023-06-01T13:50:00;1024.4;;;16.1;66.6
72226;BME280;60130;52.250;5.048;2023-06-01T13:55:00;1024.4;;;16.0;66.9
72226;BME280;60130;52.250;5.048;2023-06-01T14:00:00;1024.4;;;16.2;65.7
72226;BME280;60130;52.250;5.048;2023-06-01T14:05:00;1024.4;;;16.5;64.7
72226;BME280;60130;52.250;5.048;2023-06-01T14:10:00;1024.3;;;16.4;64.4
72226;BME280;60130;52.250;5.048;2023-06-01T14:15:00;1024.3;;;16.3;65.4
72226;BME280;60130;52.250;5.048;2023-06-01T14:20:00;1024.3;;;16.4;65.0
72226;BME280;60130;52.250;5.048;2023-06-01T14:25:00;1024.3;;;16.1;66.2
72226;BME280;60130;52.250;5.048;2023-06-01T14:30:00;1024.2;;;16.3;65.0
72226;BME280;60130;52.250;5.048;2023-06-01T14:35:00;1024.2;;;16.3;63.7
72226;BME280;60130;52.250;5.048;2023-06-01T14:40:00;1024.1;;;16.3;64.2
72226;BME280;60130;52.250;5.048;2023-06-01T14:45:00;1024.1;;;16.6;61.8
72226;BME280;60130;52.250;5.048;2023-06-01T14:50:00;1024.1;;;16.1;64.0
72226;BME280;60130;52.250;5.048;2023-06-01T14:55:00;1024.1;;;16.1;64.3
72226;BME280;60130;52.250;5.048;2023-06-01T15:00:00;1024.0;;;15.9;63.9
72226;BME280;60130;52.250;5.048;2023-06-01T15:05:00;1024.0;;;16.1;62.1
72226;BME280;60130;52.250;5.048;2023-06-01T15:10:00;1024.0;;;16.2;62.5
72226;BME280;60130;52.250;5.048;2023-06-01T15:15:00;1023.9;;;16.0;64.6
72226;BME280;60130;52.250;5.048;2023-06-01T15:20:00;1023.9;;;15.9;64.7
72226;BME280;60130;52.250;5.048;2023-06-01T15:25:00;1023.8;;;15.9;64.9
72226;BME280;60130;52.250;5.048;2023-06-01T15:30:00;1023.8;;;16.0;64.5
72226;BME280;60130;52.250;5.048;2023-06-01T15:35:00;1023.8;;;16.0;64.4
72226;BME280;60130;52.250;5.048;2023-06-01T15:40:00;1023.8;;;15.9;64.6
72226;BME280;60130;52.250;5.048;2023-06-01T15:45:00;1023.8;;;15.5;65.6
72226;BME280;60130;52.250;5.048;2023-06-01T15:50:00;1023.8;;;15.4;65.0
72226;BME280;60130;52.250;5.048;2023-06-01T15:55:00;1023.8;;;15.5;64.8
72226;BME280;60130;52.250;5.048;2023-06-01T16:00:00;1023.7;;;15.4;64.3
72226;BME280;60130;52.250;5.048;2023-06-01T16:05:00;1023.8;;;15.2;64.1
72226;BME280;60130;52.250;5.048;2023-06-01T16:10:00;1023.7;;;15.4;64.2
72226;BME280;60130;52.250;5.048;2023-06-01T16:15:00;1023.7;;;15.4;63.5
72226;BME280;60130;52.250;5.048;2023-06-01T16:20:00;1023.7;;;15.4;63.3
72226;BME280;60130;52.250;5.048;2023-06-01T16:25:00;1023.6;;;15.3;64.2
72226;BME280;60130;52.250;5.048;2023-06-01T16:30:00;1023.6;;;15.2;65.3
72226;BME280;60130;52.250;5.048;2023-06-01T16:35:00;1023.5;;;15.0;66.2
72226;BME280;60130;52.250;5.048;2023-06-01T16:40:00;1023.5;;;14.8;67.3
72226;BME280;60130;52.250;5.048;2023-06-01T16:45:00;1023.5;;;14.6;67.3
72226;BME280;60130;52.250;5.048;2023-06-01T16:50:00;1023.4;;;14.5;67.5
72226;BME280;60130;52.250;5.048;2023-06-01T16:55:00;1023.5;;;14.4;67.4
72226;BME280;60130;52.250;5.048;2023-06-01T17:00:00;1023.4;;;14.5;66.4
72226;BME280;60130;52.250;5.048;2023-06-01T17:05:00;1023.4;;;14.4;66.1
72226;BME280;60130;52.250;5.048;2023-06-01T17:10:00;1023.4;;;14.6;66.1
72226;BME280;60130;52.250;5.048;2023-06-01T17:15:00;1023.3;;;14.6;64.7
72226;BME280;60130;52.250;5.048;2023-06-01T17:20:00;1023.3;;;14.7;63.3
72226;BME280;60130;52.250;5.048;2023-06-01T17:25:00;1023.3;;;14.4;65.7
72226;BME280;60130;52.250;5.048;2023-06-01T17:30:00;1023.3;;;14.0;67.8
72226;BME280;60130;52.250;5.048;2023-06-01T17:35:00;1023.3;;;14.1;67.1
72226;BME280;60130;52.250;5.048;2023-06-01T17:40:00;1023.3;;;14.0;65.8
72226;BME280;60130;52.250;5.048;2023-06-01T17:45:00;1023.3;;;14.0;65.1
72226;BME280;60130;52.250;5.048;2023-06-01T17:50:00;1023.3;;;14.0;66.6
72226;BME280;60130;52.250;5.048;2023-06-01T17:55:00;1023.3;;;13.9;67.6
72226;BME280;60130;52.250;5.048;2023-06-01T18:00:00;1023.3;;;13.9;66.4
72226;BME280;60130;52.250;5.048;2023-06-01T18:05:00;1023.3;;;13.7;66.9
72226;BME280;60130;52.250;5.048;2023-06-01T18:10:00;1023.3;;;13.7;67.6
72226;BME280;60130;52.250;5.048;2023-06-01T18:15:00;1023.3;;;13.6;66.1
72226;BME280;60130;52.250;5.048;2023-06-01T18:20:00;1023.3;;;13.6;66.1
72226;BME280;60130;52.250;5.048;2023-06-01T18:25:00;1023.3;;;13.7;65.9
72226;BME280;60130;52.250;5.048;2023-06-01T18:30:00;1023.3;;;13.6;66.8
72226;BME280;60130;52.250;5.048;2023-06-01T18:35:00;1023.2;;;13.6;66.9
72226;BME280;60130;52.250;5.048;2023-06-01T18:40:00;1023.2;;;13.6;66.7
72226;BME280;60130;52.250;5.048;2023-06-01T18:45:00;1023.2;;;13.6;65.4
72226;BME280;60130;52.250;5.048;2023-06-01T18:50:00;1023.2;;;13.5;66.2
72226;BME280;60130;52.250;5.048;2023-06-01T18:55:00;1023.1;;;13.5;66.6
72226;BME280;60130;52.250;5.048;2023-06-01T19:00:00;1023.1;;;13.6;66.9
72226;BME280;60130;52.250;5.048;2023-06-01T19:05:00;1023.1;;;13.5;67.3
72226;BME280;60130;52.250;5.048;2023-06-01T19:10:03;1023.1;;;13.3;67.5
72226;BME280;60130;52.250;5.048;2023-06-01T19:15:00;1023.1;;;13.4;66.9
72226;BME280;60130;52.250;5.048;2023-06-01T19:20:00;1023.1;;;13.3;66.0
72226;BME280;60130;52.250;5.048;2023-06-01T19:25:01;1023.1;;;13.3;66.6
72226;BME280;60130;52.250;5.048;2023-06-01T19:30:00;1023.1;;;13.3;66.9
72226;BME280;60130;52.250;5.048;2023-06-01T19:35:01;1023.2;;;13.3;67.8
72226;BME280;60130;52.250;5.048;2023-06-01T19:40:00;1023.2;;;13.3;67.5
72226;BME280;60130;52.250;5.048;2023-06-01T19:45:00;1023.2;;;13.2;68.3
72226;BME280;60130;52.250;5.048;2023-06-01T19:50:00;1023.2;;;13.1;68.1
72226;BME280;60130;52.250;5.048;2023-06-01T19:55:00;1023.2;;;13.1;67.3
72226;BME280;60130;52.250;5.048;2023-06-01T20:00:00;1023.2;;;13.1;67.9
72226;BME280;60130;52.250;5.048;2023-06-01T20:05:05;1023.3;;;13.1;67.0
72226;BME280;60130;52.250;5.048;2023-06-01T20:10:01;1023.3;;;13.1;67.1
72226;BME280;60130;52.250;5.048;2023-06-01T20:15:00;1023.3;;;13.0;66.0
72226;BME280;60130;52.250;5.048;2023-06-01T20:20:02;1023.3;;;13.0;66.4
72226;BME280;60130;52.250;5.048;2023-06-01T20:25:01;1023.4;;;12.9;66.7
72226;BME280;60130;52.250;5.048;2023-06-01T20:30:01;1023.4;;;13.0;67.3
72226;BME280;60130;52.250;5.048;2023-06-01T20:35:00;1023.3;;;12.9;67.0
72226;BME280;60130;52.250;5.048;2023-06-01T20:40:00;1023.3;;;13.0;67.4
72226;BME280;60130;52.250;5.048;2023-06-01T20:45:00;1023.3;;;12.9;67.4
72226;BME280;60130;52.250;5.048;2023-06-01T20:50:00;1023.2;;;12.8;66.7
72226;BME280;60130;52.250;5.048;2023-06-01T20:55:00;1023.2;;;12.9;67.3
72226;BME280;60130;52.250;5.048;2023-06-01T21:00:00;1023.2;;;12.8;68.5
72226;BME280;60130;52.250;5.048;2023-06-01T21:05:00;1023.2;;;12.8;66.8
72226;BME280;60130;52.250;5.048;2023-06-01T21:10:00;1023.2;;;12.7;66.4
72226;BME280;60130;52.250;5.048;2023-06-01T21:15:00;1023.2;;;12.7;66.2
72226;BME280;60130;52.250;5.048;2023-06-01T21:20:00;1023.2;;;12.6;65.5
72226;BME280;60130;52.250;5.048;2023-06-01T21:25:00;1023.2;;;12.6;66.0
72226;BME280;60130;52.250;5.048;2023-06-01T21:30:00;1023.2;;;12.6;65.4
72226;BME280;60130;52.250;5.048;2023-06-01T21:35:00;1023.3;;;12.6;65.7
72226;BME280;60130;52.250;5.048;2023-06-01T21:40:00;1023.3;;;12.5;64.5
72226;BME280;60130;52.250;5.048;2023-06-01T21:45:00;1023.3;;;12.5;63.8
72226;BME280;60130;52.250;5.048;2023-06-01T21:50:00;1023.3;;;12.5;64.2
72226;BME280;60130;52.250;5.048;2023-06-01T21:55:00;1023.3;;;12.5;64.6
72226;BME280;60130;52.250;5.048;2023-06-01T22:00:00;1023.3;;;12.5;64.6
72226;BME280;60130;52.250;5.048;2023-06-01T22:05:00;1023.3;;;12.6;65.6
72226;BME280;60130;52.250;5.048;2023-06-01T22:10:00;1023.3;;;12.6;65.4
72226;BME280;60130;52.250;5.048;2023-06-01T22:15:00;1023.3;;;12.6;65.2
72226;BME280;60130;52.250;5.048;2023-06-01T22:20:00;1023.4;;;12.6;64.4
72226;BME280;60130;52.250;5.048;2023-06-01T22:25:00;1023.3;;;12.6;63.9
72226;BME280;60130;52.250;5.048;2023-06-01T22:30:00;1023.3;;;12.7;64.6
72226;BME280;60130;52.250;5.048;2023-06-01T22:35:00;1023.3;;;12.7;65.4
72226;BME280;60130;52.250;5.048;2023-06-01T22:40:00;1023.3;;;12.8;65.2
72226;BME280;60130;52.250;5.048;2023-06-01T22:45:01;1023.2;;;12.7;64.8
72226;BME280;60130;52.250;5.048;2023-06-01T22:50:00;1023.2;;;12.8;65.5
72226;BME280;60130;52.250;5.048;2023-06-01T22:55:00;1023.3;;;12.9;65.6
72226;BME280;60130;52.250;5.048;2023-06-01T23:00:00;1023.2;;;12.7;66.7
72226;BME280;60130;52.250;5.048;2023-06-01T23:05:00;1023.3;;;12.8;66.4
72226;BME280;60130;52.250;5.048;2023-06-01T23:10:00;1023.3;;;12.9;66.3
72226;BME280;60130;52.250;5.048;2023-06-01T23:15:00;1023.3;;;12.7;66.8
72226;BME280;60130;52.250;5.048;2023-06-01T23:20:00;1023.4;;;12.8;66.7
72226;BME280;60130;52.250;5.048;2023-06-01T23:25:00;1023.3;;;12.6;65.7
72226;BME280;60130;52.250;5.048;2023-06-01T23:30:00;1023.4;;;12.6;66.5
72226;BME280;60130;52.250;5.048;2023-06-01T23:35:00;1023.4;;;12.4;65.6
72226;BME280;60130;52.250;5.048;2023-06-01T23:40:00;1023.4;;;12.4;65.6
72226;BME280;60130;52.250;5.048;2023-06-01T23:45:00;1023.3;;;12.4;65.9
72226;BME280;60130;52.250;5.048;2023-06-01T23:50:00;1023.6;;;12.2;64.5
72226;BME280;60130;52.250;5.048;2023-06-01T23:55:00;1023.5;;;12.2;64.5
